sensor_id;sensor_type;location;lat;lon;timestamp;temperature;humidity
6377;DHT22;3221;48.858;10.128;2024-03-08T00:00:13;2.20;99.90
6377;DHT22;3221;48.858;10.128;2024-03-08T00:02:43;2.20;99.90
6377;DHT22;3221;48.858;10.128;2024-03-08T00:05:11;2.20;99.90
6377;DHT22;3221;48.858;10.128;2024-03-08T00:07:39;2.10;99.90
6377;DHT22;3221;48.858;10.128;2024-03-08T00:10:08;2.30;99.90
6377;DHT22;3221;48.858;10.128;2024-03-08T00:12:44;2.20;99.90
6377;DHT22;3221;48.858;10.128;2024-03-08T00:15:14;2.20;99.90
6377;DHT22;3221;48.858;10.128;2024-03-08T00:17:44;2.20;99.90
6377;DHT22;3221;48.858;10.128;2024-03-08T00:20:11;2.20;99.90
6377;DHT22;3221;48.858;10.128;2024-03-08T00:22:40;2.20;99.90
6377;DHT22;3221;48.858;10.128;2024-03-08T00:25:08;2.00;99.90
6377;DHT22;3221;48.858;10.128;2024-03-08T00:27:41;2.00;99.90
6377;DHT22;3221;48.858;10.128;2024-03-08T00:30:09;2.00;99.90
6377;DHT22;3221;48.858;10.128;2024-03-08T00:32:36;2.00;99.90
6377;DHT22;3221;48.858;10.128;2024-03-08T00:35:04;2.00;99.90
6377;DHT22;3221;48.858;10.128;2024-03-08T00:37:34;1.90;99.90
6377;DHT22;3221;48.858;10.128;2024-03-08T00:40:02;1.90;99.90
6377;DHT22;3221;48.858;10.128;2024-03-08T00:42:29;1.80;99.90
6377;DHT22;3221;48.858;10.128;2024-03-08T00:44:56;1.90;99.90
6377;DHT22;3221;48.858;10.128;2024-03-08T00:47:25;1.90;99.90
6377;DHT22;3221;48.858;10.128;2024-03-08T00:49:52;1.90;99.90
6377;DHT22;3221;48.858;10.128;2024-03-08T00:52:20;1.90;99.90
6377;DHT22;3221;48.858;10.128;2024-03-08T00:54:47;1.80;99.90
6377;DHT22;3221;48.858;10.128;2024-03-08T00:57:14;1.80;99.90
6377;DHT22;3221;48.858;10.128;2024-03-08T00:59:41;1.80;99.90
6377;DHT22;3221;48.858;10.128;2024-03-08T01:02:09;1.80;99.90
6377;DHT22;3221;48.858;10.128;2024-03-08T01:04:37;1.90;99.90
6377;DHT22;3221;48.858;10.128;2024-03-08T01:07:04;1.70;99.90
6377;DHT22;3221;48.858;10.128;2024-03-08T01:09:31;1.70;99.90
6377;DHT22;3221;48.858;10.128;2024-03-08T01:11:58;1.80;99.90
6377;DHT22;3221;48.858;10.128;2024-03-08T01:14:26;1.50;99.90
6377;DHT22;3221;48.858;10.128;2024-03-08T01:16:53;1.40;99.90
6377;DHT22;3221;48.858;10.128;2024-03-08T01:19:22;1.50;99.90
6377;DHT22;3221;48.858;10.128;2024-03-08T01:21:49;1.50;99.90
6377;DHT22;3221;48.858;10.128;2024-03-08T01:24:16;1.50;99.90
6377;DHT22;3221;48.858;10.128;2024-03-08T01:26:43;1.50;99.90
6377;DHT22;3221;48.858;10.128;2024-03-08T01:29:11;1.60;99.90
6377;DHT22;3221;48.858;10.128;2024-03-08T01:31:38;1.50;99.90
6377;DHT22;3221;48.858;10.128;2024-03-08T01:34:05;1.40;99.90
6377;DHT22;3221;48.858;10.128;2024-03-08T01:36:32;1.40;99.90
6377;DHT22;3221;48.858;10.128;2024-03-08T01:39:08;1.40;99.90
6377;DHT22;3221;48.858;10.128;2024-03-08T01:41:36;1.50;99.90
6377;DHT22;3221;48.858;10.128;2024-03-08T01:44:03;1.60;99.90
6377;DHT22;3221;48.858;10.128;2024-03-08T01:46:31;1.40;99.90
6377;DHT22;3221;48.858;10.128;2024-03-08T01:48:58;1.40;99.90
6377;DHT22;3221;48.858;10.128;2024-03-08T01:51:29;1.30;99.90
6377;DHT22;3221;48.858;10.128;2024-03-08T01:53:58;1.20;99.90
6377;DHT22;3221;48.858;10.128;2024-03-08T01:56:27;1.20;99.90
6377;DHT22;3221;48.858;10.128;2024-03-08T01:58:54;1.30;99.90
6377;DHT22;3221;48.858;10.128;2024-03-08T02:01:21;1.30;99.90
6377;DHT22;3221;48.858;10.128;2024-03-08T02:03:49;1.30;99.90
6377;DHT22;3221;48.858;10.128;2024-03-08T02:06:16;1.20;99.90
6377;DHT22;3221;48.858;10.128;2024-03-08T02:08:44;1.20;99.90
6377;DHT22;3221;48.858;10.128;2024-03-08T02:11:12;1.20;99.90
6377;DHT22;3221;48.858;10.128;2024-03-08T02:13:40;1.20;99.90
6377;DHT22;3221;48.858;10.128;2024-03-08T02:16:07;1.20;99.90
6377;DHT22;3221;48.858;10.128;2024-03-08T02:18:35;1.20;99.90
6377;DHT22;3221;48.858;10.128;2024-03-08T02:21:04;1.00;99.90
6377;DHT22;3221;48.858;10.128;2024-03-08T02:23:32;1.10;99.90
6377;DHT22;3221;48.858;10.128;2024-03-08T02:26:00;1.20;99.90
6377;DHT22;3221;48.858;10.128;2024-03-08T02:28:27;1.10;99.90
6377;DHT22;3221;48.858;10.128;2024-03-08T02:30:55;1.10;99.90
6377;DHT22;3221;48.858;10.128;2024-03-08T02:33:24;1.10;99.90
6377;DHT22;3221;48.858;10.128;2024-03-08T02:35:51;1.20;99.90
6377;DHT22;3221;48.858;10.128;2024-03-08T02:38:20;1.10;99.90
6377;DHT22;3221;48.858;10.128;2024-03-08T02:40:52;1.10;99.90
6377;DHT22;3221;48.858;10.128;2024-03-08T02:43:21;1.20;99.90
6377;DHT22;3221;48.858;10.128;2024-03-08T02:45:52;1.10;99.90
6377;DHT22;3221;48.858;10.128;2024-03-08T02:48:21;1.10;99.90
6377;DHT22;3221;48.858;10.128;2024-03-08T02:50:49;1.10;99.90
6377;DHT22;3221;48.858;10.128;2024-03-08T02:53:18;1.10;99.90
6377;DHT22;3221;48.858;10.128;2024-03-08T02:55:49;1.10;99.90
6377;DHT22;3221;48.858;10.128;2024-03-08T02:58:16;1.10;99.90
6377;DHT22;3221;48.858;10.128;2024-03-08T03:00:43;1.10;99.90
6377;DHT22;3221;48.858;10.128;2024-03-08T03:03:11;1.30;99.90
6377;DHT22;3221;48.858;10.128;2024-03-08T03:05:39;1.20;99.90
6377;DHT22;3221;48.858;10.128;2024-03-08T03:08:14;1.20;99.90
6377;DHT22;3221;48.858;10.128;2024-03-08T03:10:42;1.20;99.90
6377;DHT22;3221;48.858;10.128;2024-03-08T03:13:09;1.20;99.90
6377;DHT22;3221;48.858;10.128;2024-03-08T03:15:36;1.10;99.90
6377;DHT22;3221;48.858;10.128;2024-03-08T03:18:04;1.00;99.90
6377;DHT22;3221;48.858;10.128;2024-03-08T03:20:35;1.00;99.90
6377;DHT22;3221;48.858;10.128;2024-03-08T03:23:11;1.00;99.90
6377;DHT22;3221;48.858;10.128;2024-03-08T03:25:42;1.00;99.90
6377;DHT22;3221;48.858;10.128;2024-03-08T03:28:10;1.00;99.90
6377;DHT22;3221;48.858;10.128;2024-03-08T03:30:41;0.90;99.90
6377;DHT22;3221;48.858;10.128;2024-03-08T03:33:08;0.90;99.90
6377;DHT22;3221;48.858;10.128;2024-03-08T03:35:36;0.90;99.90
6377;DHT22;3221;48.858;10.128;2024-03-08T03:38:05;0.80;99.90
6377;DHT22;3221;48.858;10.128;2024-03-08T03:40:38;0.90;99.90
6377;DHT22;3221;48.858;10.128;2024-03-08T03:43:05;0.90;99.90
6377;DHT22;3221;48.858;10.128;2024-03-08T03:45:33;0.90;99.90
6377;DHT22;3221;48.858;10.128;2024-03-08T03:48:05;0.90;99.90
6377;DHT22;3221;48.858;10.128;2024-03-08T03:50:38;0.80;99.90
6377;DHT22;3221;48.858;10.128;2024-03-08T03:53:06;0.90;99.90
6377;DHT22;3221;48.858;10.128;2024-03-08T03:55:35;0.90;99.90
6377;DHT22;3221;48.858;10.128;2024-03-08T03:58:04;0.90;99.90
6377;DHT22;3221;48.858;10.128;2024-03-08T04:00:31;0.80;99.90
6377;DHT22;3221;48.858;10.128;2024-03-08T04:02:58;0.80;99.90
6377;DHT22;3221;48.858;10.128;2024-03-08T04:05:27;0.70;99.90
6377;DHT22;3221;48.858;10.128;2024-03-08T04:07:55;0.70;99.90
6377;DHT22;3221;48.858;10.128;2024-03-08T04:10:21;0.70;99.90
6377;DHT22;3221;48.858;10.128;2024-03-08T04:12:48;0.60;99.90
6377;DHT22;3221;48.858;10.128;2024-03-08T04:15:15;0.60;99.90
6377;DHT22;3221;48.858;10.128;2024-03-08T04:17:42;0.60;99.90
6377;DHT22;3221;48.858;10.128;2024-03-08T04:20:10;0.50;99.90
6377;DHT22;3221;48.858;10.128;2024-03-08T04:22:38;0.60;99.90
6377;DHT22;3221;48.858;10.128;2024-03-08T04:25:06;0.50;99.90
6377;DHT22;3221;48.858;10.128;2024-03-08T04:27:35;0.50;99.90
6377;DHT22;3221;48.858;10.128;2024-03-08T04:30:03;0.60;99.90
6377;DHT22;3221;48.858;10.128;2024-03-08T04:32:30;0.50;99.90
6377;DHT22;3221;48.858;10.128;2024-03-08T04:35:00;0.50;99.90
6377;DHT22;3221;48.858;10.128;2024-03-08T04:37:31;0.50;99.90
6377;DHT22;3221;48.858;10.128;2024-03-08T04:39:59;0.50;99.90
6377;DHT22;3221;48.858;10.128;2024-03-08T04:42:30;0.50;99.90
6377;DHT22;3221;48.858;10.128;2024-03-08T04:44:59;0.60;99.90
6377;DHT22;3221;48.858;10.128;2024-03-08T04:47:27;0.40;99.90
6377;DHT22;3221;48.858;10.128;2024-03-08T04:49:54;0.50;99.90
6377;DHT22;3221;48.858;10.128;2024-03-08T04:52:23;0.50;99.90
6377;DHT22;3221;48.858;10.128;2024-03-08T04:54:50;0.50;99.90
6377;DHT22;3221;48.858;10.128;2024-03-08T04:57:17;0.40;99.90
6377;DHT22;3221;48.858;10.128;2024-03-08T04:59:47;0.40;99.90
6377;DHT22;3221;48.858;10.128;2024-03-08T05:02:14;0.30;99.90
6377;DHT22;3221;48.858;10.128;2024-03-08T05:04:41;0.30;99.90
6377;DHT22;3221;48.858;10.128;2024-03-08T05:07:09;0.30;99.90
6377;DHT22;3221;48.858;10.128;2024-03-08T05:09:36;0.30;99.90
6377;DHT22;3221;48.858;10.128;2024-03-08T05:12:04;0.40;99.90
6377;DHT22;3221;48.858;10.128;2024-03-08T05:14:32;0.40;99.90
6377;DHT22;3221;48.858;10.128;2024-03-08T05:16:59;0.40;99.90
6377;DHT22;3221;48.858;10.128;2024-03-08T05:19:27;0.30;99.90
6377;DHT22;3221;48.858;10.128;2024-03-08T05:21:56;0.30;99.90
6377;DHT22;3221;48.858;10.128;2024-03-08T05:24:23;0.30;99.90
6377;DHT22;3221;48.858;10.128;2024-03-08T05:26:50;0.30;99.90
6377;DHT22;3221;48.858;10.128;2024-03-08T05:29:17;0.30;99.90
6377;DHT22;3221;48.858;10.128;2024-03-08T05:31:49;0.30;99.90
6377;DHT22;3221;48.858;10.128;2024-03-08T05:34:17;0.20;99.90
6377;DHT22;3221;48.858;10.128;2024-03-08T05:36:44;0.20;99.90
6377;DHT22;3221;48.858;10.128;2024-03-08T05:39:16;0.30;99.90
6377;DHT22;3221;48.858;10.128;2024-03-08T05:41:44;0.20;99.90
6377;DHT22;3221;48.858;10.128;2024-03-08T05:44:13;0.30;99.90
6377;DHT22;3221;48.858;10.128;2024-03-08T05:46:40;0.30;99.90
6377;DHT22;3221;48.858;10.128;2024-03-08T05:49:07;0.20;99.90
6377;DHT22;3221;48.858;10.128;2024-03-08T05:51:38;0.20;99.90
6377;DHT22;3221;48.858;10.128;2024-03-08T05:54:15;0.10;99.90
6377;DHT22;3221;48.858;10.128;2024-03-08T05:56:45;0.10;99.90
6377;DHT22;3221;48.858;10.128;2024-03-08T05:59:14;0.10;99.90
6377;DHT22;3221;48.858;10.128;2024-03-08T06:01:41;0.20;99.90
6377;DHT22;3221;48.858;10.128;2024-03-08T06:04:09;0.20;99.90
6377;DHT22;3221;48.858;10.128;2024-03-08T06:06:39;0.20;99.90
6377;DHT22;3221;48.858;10.128;2024-03-08T06:09:07;0.20;99.90
6377;DHT22;3221;48.858;10.128;2024-03-08T06:11:38;0.20;99.90
6377;DHT22;3221;48.858;10.128;2024-03-08T06:14:06;0.10;99.90
6377;DHT22;3221;48.858;10.128;2024-03-08T06:16:33;0.20;99.90
6377;DHT22;3221;48.858;10.128;2024-03-08T06:19:00;0.30;99.90
6377;DHT22;3221;48.858;10.128;2024-03-08T06:21:29;0.00;99.90
6377;DHT22;3221;48.858;10.128;2024-03-08T06:23:56;0.00;99.90
6377;DHT22;3221;48.858;10.128;2024-03-08T06:26:25;0.00;99.90
6377;DHT22;3221;48.858;10.128;2024-03-08T06:28:56;0.00;99.90
6377;DHT22;3221;48.858;10.128;2024-03-08T06:31:24;0.00;99.90
6377;DHT22;3221;48.858;10.128;2024-03-08T06:33:51;0.10;99.90
6377;DHT22;3221;48.858;10.128;2024-03-08T06:36:22;0.10;99.90
6377;DHT22;3221;48.858;10.128;2024-03-08T06:38:50;0.00;99.90
6377;DHT22;3221;48.858;10.128;2024-03-08T06:41:17;0.10;99.90
6377;DHT22;3221;48.858;10.128;2024-03-08T06:43:45;0.10;99.90
6377;DHT22;3221;48.858;10.128;2024-03-08T06:46:12;0.20;99.90
6377;DHT22;3221;48.858;10.128;2024-03-08T06:48:41;0.20;99.90
6377;DHT22;3221;48.858;10.128;2024-03-08T06:51:08;0.10;99.90
6377;DHT22;3221;48.858;10.128;2024-03-08T06:53:38;0.10;99.90
6377;DHT22;3221;48.858;10.128;2024-03-08T06:56:06;0.10;99.90
6377;DHT22;3221;48.858;10.128;2024-03-08T06:58:35;0.10;99.90
6377;DHT22;3221;48.858;10.128;2024-03-08T07:01:02;0.20;99.90
6377;DHT22;3221;48.858;10.128;2024-03-08T07:03:31;0.20;99.90
6377;DHT22;3221;48.858;10.128;2024-03-08T07:05:59;0.20;99.90
6377;DHT22;3221;48.858;10.128;2024-03-08T07:08:29;0.10;99.90
6377;DHT22;3221;48.858;10.128;2024-03-08T07:10:57;0.20;99.90
6377;DHT22;3221;48.858;10.128;2024-03-08T07:13:26;0.20;99.90
6377;DHT22;3221;48.858;10.128;2024-03-08T07:15:56;0.20;99.90
6377;DHT22;3221;48.858;10.128;2024-03-08T07:18:27;0.10;99.90
6377;DHT22;3221;48.858;10.128;2024-03-08T07:20:54;0.10;99.90
6377;DHT22;3221;48.858;10.128;2024-03-08T07:23:21;0.10;99.90
6377;DHT22;3221;48.858;10.128;2024-03-08T07:26:07;0.20;99.90
6377;DHT22;3221;48.858;10.128;2024-03-08T07:28:34;0.20;99.90
6377;DHT22;3221;48.858;10.128;2024-03-08T07:31:01;0.20;99.90
6377;DHT22;3221;48.858;10.128;2024-03-08T07:33:44;0.20;99.90
6377;DHT22;3221;48.858;10.128;2024-03-08T07:36:11;0.20;99.90
6377;DHT22;3221;48.858;10.128;2024-03-08T07:38:39;0.20;99.90
6377;DHT22;3221;48.858;10.128;2024-03-08T07:41:06;0.20;99.90
6377;DHT22;3221;48.858;10.128;2024-03-08T07:43:33;0.30;99.90
6377;DHT22;3221;48.858;10.128;2024-03-08T07:46:00;0.50;99.90
6377;DHT22;3221;48.858;10.128;2024-03-08T07:48:27;0.40;99.90
6377;DHT22;3221;48.858;10.128;2024-03-08T07:50:54;0.30;99.90
6377;DHT22;3221;48.858;10.128;2024-03-08T07:53:22;0.30;99.90
6377;DHT22;3221;48.858;10.128;2024-03-08T07:55:51;0.30;99.90
6377;DHT22;3221;48.858;10.128;2024-03-08T07:58:18;0.40;99.90
6377;DHT22;3221;48.858;10.128;2024-03-08T08:00:46;0.40;99.90
6377;DHT22;3221;48.858;10.128;2024-03-08T08:03:13;0.40;99.90
6377;DHT22;3221;48.858;10.128;2024-03-08T08:05:40;0.40;99.90
6377;DHT22;3221;48.858;10.128;2024-03-08T08:08:10;0.40;99.90
6377;DHT22;3221;48.858;10.128;2024-03-08T08:10:38;0.40;99.90
6377;DHT22;3221;48.858;10.128;2024-03-08T08:13:06;0.50;99.90
6377;DHT22;3221;48.858;10.128;2024-03-08T08:15:33;0.50;99.90
6377;DHT22;3221;48.858;10.128;2024-03-08T08:18:03;0.50;99.90
6377;DHT22;3221;48.858;10.128;2024-03-08T08:20:33;0.60;99.90
6377;DHT22;3221;48.858;10.128;2024-03-08T08:23:00;0.60;99.90
6377;DHT22;3221;48.858;10.128;2024-03-08T08:25:27;0.60;99.90
6377;DHT22;3221;48.858;10.128;2024-03-08T08:27:55;0.70;99.90
6377;DHT22;3221;48.858;10.128;2024-03-08T08:30:21;0.70;99.90
6377;DHT22;3221;48.858;10.128;2024-03-08T08:32:49;0.70;99.90
6377;DHT22;3221;48.858;10.128;2024-03-08T08:35:16;0.60;99.90
6377;DHT22;3221;48.858;10.128;2024-03-08T08:37:45;0.90;99.90
6377;DHT22;3221;48.858;10.128;2024-03-08T08:40:12;0.80;99.90
6377;DHT22;3221;48.858;10.128;2024-03-08T08:42:45;0.90;99.90
6377;DHT22;3221;48.858;10.128;2024-03-08T08:45:15;0.90;99.90
6377;DHT22;3221;48.858;10.128;2024-03-08T08:47:50;0.90;99.90
6377;DHT22;3221;48.858;10.128;2024-03-08T08:50:17;1.00;99.90
6377;DHT22;3221;48.858;10.128;2024-03-08T08:52:51;0.90;99.90
6377;DHT22;3221;48.858;10.128;2024-03-08T08:55:18;1.00;99.90
6377;DHT22;3221;48.858;10.128;2024-03-08T08:57:48;1.10;99.90
6377;DHT22;3221;48.858;10.128;2024-03-08T09:00:16;1.20;99.90
6377;DHT22;3221;48.858;10.128;2024-03-08T09:02:43;1.20;99.90
6377;DHT22;3221;48.858;10.128;2024-03-08T09:05:10;1.30;99.90
6377;DHT22;3221;48.858;10.128;2024-03-08T09:07:44;1.30;99.90
6377;DHT22;3221;48.858;10.128;2024-03-08T09:10:12;1.30;99.90
6377;DHT22;3221;48.858;10.128;2024-03-08T09:12:42;1.30;99.90
6377;DHT22;3221;48.858;10.128;2024-03-08T09:15:09;1.30;99.90
6377;DHT22;3221;48.858;10.128;2024-03-08T09:17:39;1.50;99.90
6377;DHT22;3221;48.858;10.128;2024-03-08T09:20:07;1.40;99.90
6377;DHT22;3221;48.858;10.128;2024-03-08T09:22:35;1.50;99.90
6377;DHT22;3221;48.858;10.128;2024-03-08T09:25:03;1.60;99.90
6377;DHT22;3221;48.858;10.128;2024-03-08T09:27:33;1.60;99.90
6377;DHT22;3221;48.858;10.128;2024-03-08T09:30:06;1.70;99.90
6377;DHT22;3221;48.858;10.128;2024-03-08T09:32:34;1.70;99.90
6377;DHT22;3221;48.858;10.128;2024-03-08T09:35:02;1.70;99.90
6377;DHT22;3221;48.858;10.128;2024-03-08T09:37:29;1.80;99.90
6377;DHT22;3221;48.858;10.128;2024-03-08T09:39:57;2.00;99.90
6377;DHT22;3221;48.858;10.128;2024-03-08T09:42:26;1.90;99.90
6377;DHT22;3221;48.858;10.128;2024-03-08T09:44:53;2.00;99.90
6377;DHT22;3221;48.858;10.128;2024-03-08T09:47:22;2.20;99.90
6377;DHT22;3221;48.858;10.128;2024-03-08T09:49:52;2.10;99.90
6377;DHT22;3221;48.858;10.128;2024-03-08T09:52:20;2.10;99.90
6377;DHT22;3221;48.858;10.128;2024-03-08T09:54:47;2.20;99.90
6377;DHT22;3221;48.858;10.128;2024-03-08T09:57:14;2.50;99.90
6377;DHT22;3221;48.858;10.128;2024-03-08T09:59:44;2.50;99.90
6377;DHT22;3221;48.858;10.128;2024-03-08T10:02:15;2.50;99.90
6377;DHT22;3221;48.858;10.128;2024-03-08T10:04:43;2.50;99.90
6377;DHT22;3221;48.858;10.128;2024-03-08T10:07:10;2.60;99.90
6377;DHT22;3221;48.858;10.128;2024-03-08T10:09:38;2.80;99.90
6377;DHT22;3221;48.858;10.128;2024-03-08T10:12:05;2.80;99.90
6377;DHT22;3221;48.858;10.128;2024-03-08T10:14:32;2.90;99.90
6377;DHT22;3221;48.858;10.128;2024-03-08T10:16:59;3.10;99.90
6377;DHT22;3221;48.858;10.128;2024-03-08T10:19:27;3.20;99.90
6377;DHT22;3221;48.858;10.128;2024-03-08T10:21:57;3.30;99.90
6377;DHT22;3221;48.858;10.128;2024-03-08T10:24:26;3.40;99.90
6377;DHT22;3221;48.858;10.128;2024-03-08T10:26:58;3.50;99.90
6377;DHT22;3221;48.858;10.128;2024-03-08T10:29:25;3.50;99.90
6377;DHT22;3221;48.858;10.128;2024-03-08T10:31:52;3.70;99.90
6377;DHT22;3221;48.858;10.128;2024-03-08T10:34:19;3.70;99.90
6377;DHT22;3221;48.858;10.128;2024-03-08T10:36:50;3.80;99.90
6377;DHT22;3221;48.858;10.128;2024-03-08T10:39:25;3.90;99.90
6377;DHT22;3221;48.858;10.128;2024-03-08T10:41:58;4.10;99.90
6377;DHT22;3221;48.858;10.128;2024-03-08T10:44:32;4.10;99.90
6377;DHT22;3221;48.858;10.128;2024-03-08T10:47:12;4.20;99.90
6377;DHT22;3221;48.858;10.128;2024-03-08T10:49:54;4.30;99.90
6377;DHT22;3221;48.858;10.128;2024-03-08T10:52:22;4.30;99.90
6377;DHT22;3221;48.858;10.128;2024-03-08T10:54:51;4.30;99.90
6377;DHT22;3221;48.858;10.128;2024-03-08T10:57:19;4.40;99.90
6377;DHT22;3221;48.858;10.128;2024-03-08T10:59:50;4.60;99.90
6377;DHT22;3221;48.858;10.128;2024-03-08T11:02:18;4.70;99.90
6377;DHT22;3221;48.858;10.128;2024-03-08T11:04:48;4.60;99.90
6377;DHT22;3221;48.858;10.128;2024-03-08T11:07:16;4.80;99.90
6377;DHT22;3221;48.858;10.128;2024-03-08T11:09:48;4.80;99.90
6377;DHT22;3221;48.858;10.128;2024-03-08T11:12:26;4.90;99.90
6377;DHT22;3221;48.858;10.128;2024-03-08T11:14:59;5.00;99.90
6377;DHT22;3221;48.858;10.128;2024-03-08T11:19:58;5.10;99.90
6377;DHT22;3221;48.858;10.128;2024-03-08T11:22:30;5.20;99.90
6377;DHT22;3221;48.858;10.128;2024-03-08T11:25:09;5.00;99.90
6377;DHT22;3221;48.858;10.128;2024-03-08T11:27:39;5.20;99.90
6377;DHT22;3221;48.858;10.128;2024-03-08T11:30:22;5.30;99.90
6377;DHT22;3221;48.858;10.128;2024-03-08T11:32:51;5.20;99.90
6377;DHT22;3221;48.858;10.128;2024-03-08T11:35:21;5.30;99.90
6377;DHT22;3221;48.858;10.128;2024-03-08T11:37:50;5.30;99.90
6377;DHT22;3221;48.858;10.128;2024-03-08T11:40:18;5.50;99.90
6377;DHT22;3221;48.858;10.128;2024-03-08T11:42:48;5.60;99.90
6377;DHT22;3221;48.858;10.128;2024-03-08T11:45:16;5.50;99.90
6377;DHT22;3221;48.858;10.128;2024-03-08T11:47:45;5.70;99.90
6377;DHT22;3221;48.858;10.128;2024-03-08T11:50:16;5.80;99.90
6377;DHT22;3221;48.858;10.128;2024-03-08T11:52:46;5.90;99.90
6377;DHT22;3221;48.858;10.128;2024-03-08T11:55:14;6.00;99.90
6377;DHT22;3221;48.858;10.128;2024-03-08T11:57:41;6.10;99.90
6377;DHT22;3221;48.858;10.128;2024-03-08T12:00:18;6.10;99.90
6377;DHT22;3221;48.858;10.128;2024-03-08T12:03:06;6.20;99.90
6377;DHT22;3221;48.858;10.128;2024-03-08T12:05:34;6.10;99.90
6377;DHT22;3221;48.858;10.128;2024-03-08T12:08:02;6.30;99.90
6377;DHT22;3221;48.858;10.128;2024-03-08T12:10:30;6.30;99.90
6377;DHT22;3221;48.858;10.128;2024-03-08T12:12:58;6.40;99.90
6377;DHT22;3221;48.858;10.128;2024-03-08T12:15:31;6.30;99.90
6377;DHT22;3221;48.858;10.128;2024-03-08T12:18:01;6.50;99.90
6377;DHT22;3221;48.858;10.128;2024-03-08T12:20:28;6.50;99.90
6377;DHT22;3221;48.858;10.128;2024-03-08T12:22:59;6.60;99.90
6377;DHT22;3221;48.858;10.128;2024-03-08T12:25:33;6.60;99.90
6377;DHT22;3221;48.858;10.128;2024-03-08T12:28:11;6.70;99.90
6377;DHT22;3221;48.858;10.128;2024-03-08T12:30:50;6.60;99.90
6377;DHT22;3221;48.858;10.128;2024-03-08T12:33:22;6.60;99.90
6377;DHT22;3221;48.858;10.128;2024-03-08T12:35:54;6.70;99.90
6377;DHT22;3221;48.858;10.128;2024-03-08T12:38:23;6.80;99.90
6377;DHT22;3221;48.858;10.128;2024-03-08T12:41:00;6.90;99.90
6377;DHT22;3221;48.858;10.128;2024-03-08T12:43:29;6.90;99.90
6377;DHT22;3221;48.858;10.128;2024-03-08T12:45:58;7.00;99.90
6377;DHT22;3221;48.858;10.128;2024-03-08T12:48:25;7.00;99.90
6377;DHT22;3221;48.858;10.128;2024-03-08T12:50:52;7.10;99.90
6377;DHT22;3221;48.858;10.128;2024-03-08T12:53:20;7.10;99.90
6377;DHT22;3221;48.858;10.128;2024-03-08T12:55:50;7.00;99.90
6377;DHT22;3221;48.858;10.128;2024-03-08T12:58:17;7.20;99.90
6377;DHT22;3221;48.858;10.128;2024-03-08T13:00:44;7.20;99.90
6377;DHT22;3221;48.858;10.128;2024-03-08T13:03:12;7.20;99.90
6377;DHT22;3221;48.858;10.128;2024-03-08T13:05:39;7.30;99.90
6377;DHT22;3221;48.858;10.128;2024-03-08T13:08:07;7.30;99.90
6377;DHT22;3221;48.858;10.128;2024-03-08T13:10:40;7.40;99.90
6377;DHT22;3221;48.858;10.128;2024-03-08T13:13:11;7.40;99.90
6377;DHT22;3221;48.858;10.128;2024-03-08T13:15:44;7.50;99.90
6377;DHT22;3221;48.858;10.128;2024-03-08T13:18:12;7.60;99.90
6377;DHT22;3221;48.858;10.128;2024-03-08T13:20:39;7.70;99.90
6377;DHT22;3221;48.858;10.128;2024-03-08T13:23:14;7.50;99.90
6377;DHT22;3221;48.858;10.128;2024-03-08T13:25:41;7.60;99.90
6377;DHT22;3221;48.858;10.128;2024-03-08T13:28:09;7.60;99.90
6377;DHT22;3221;48.858;10.128;2024-03-08T13:30:37;7.60;99.90
6377;DHT22;3221;48.858;10.128;2024-03-08T13:33:05;7.80;99.90
6377;DHT22;3221;48.858;10.128;2024-03-08T13:35:34;7.80;99.90
6377;DHT22;3221;48.858;10.128;2024-03-08T13:38:01;7.80;99.90
6377;DHT22;3221;48.858;10.128;2024-03-08T13:40:31;7.90;99.90
6377;DHT22;3221;48.858;10.128;2024-03-08T13:42:58;7.80;99.90
6377;DHT22;3221;48.858;10.128;2024-03-08T13:45:28;7.80;99.90
6377;DHT22;3221;48.858;10.128;2024-03-08T13:47:55;8.10;99.90
6377;DHT22;3221;48.858;10.128;2024-03-08T13:50:23;8.00;99.90
6377;DHT22;3221;48.858;10.128;2024-03-08T13:52:51;7.90;99.90
6377;DHT22;3221;48.858;10.128;2024-03-08T13:55:21;7.90;99.90
6377;DHT22;3221;48.858;10.128;2024-03-08T13:57:54;7.90;99.90
6377;DHT22;3221;48.858;10.128;2024-03-08T14:00:24;8.10;99.90
6377;DHT22;3221;48.858;10.128;2024-03-08T14:02:54;8.10;99.90
6377;DHT22;3221;48.858;10.128;2024-03-08T14:05:21;8.00;99.90
6377;DHT22;3221;48.858;10.128;2024-03-08T14:07:49;8.30;99.90
6377;DHT22;3221;48.858;10.128;2024-03-08T14:10:17;8.20;99.90
6377;DHT22;3221;48.858;10.128;2024-03-08T14:12:48;8.10;99.90
6377;DHT22;3221;48.858;10.128;2024-03-08T14:15:17;8.20;99.90
6377;DHT22;3221;48.858;10.128;2024-03-08T14:17:44;8.20;99.90
6377;DHT22;3221;48.858;10.128;2024-03-08T14:20:14;8.20;99.90
6377;DHT22;3221;48.858;10.128;2024-03-08T14:22:41;8.20;99.90
6377;DHT22;3221;48.858;10.128;2024-03-08T14:25:09;8.20;99.90
6377;DHT22;3221;48.858;10.128;2024-03-08T14:27:45;8.20;99.90
6377;DHT22;3221;48.858;10.128;2024-03-08T14:30:13;8.20;99.90
6377;DHT22;3221;48.858;10.128;2024-03-08T14:32:40;8.20;99.90
6377;DHT22;3221;48.858;10.128;2024-03-08T14:35:08;8.10;99.90
6377;DHT22;3221;48.858;10.128;2024-03-08T14:37:38;8.10;99.90
6377;DHT22;3221;48.858;10.128;2024-03-08T14:40:06;8.20;99.90
6377;DHT22;3221;48.858;10.128;2024-03-08T14:42:33;8.30;99.90
6377;DHT22;3221;48.858;10.128;2024-03-08T14:45:00;8.20;99.90
6377;DHT22;3221;48.858;10.128;2024-03-08T14:47:27;8.20;99.90
6377;DHT22;3221;48.858;10.128;2024-03-08T14:49:55;8.20;99.90
6377;DHT22;3221;48.858;10.128;2024-03-08T14:52:22;8.20;99.90
6377;DHT22;3221;48.858;10.128;2024-03-08T14:54:56;8.20;99.90
6377;DHT22;3221;48.858;10.128;2024-03-08T14:57:24;8.20;99.90
6377;DHT22;3221;48.858;10.128;2024-03-08T14:59:51;8.20;99.90
6377;DHT22;3221;48.858;10.128;2024-03-08T15:02:18;8.20;99.90
6377;DHT22;3221;48.858;10.128;2024-03-08T15:04:49;8.10;99.90
6377;DHT22;3221;48.858;10.128;2024-03-08T15:07:25;8.10;99.90
6377;DHT22;3221;48.858;10.128;2024-03-08T15:09:53;8.10;99.90
6377;DHT22;3221;48.858;10.128;2024-03-08T15:12:23;8.10;99.90
6377;DHT22;3221;48.858;10.128;2024-03-08T15:14:53;8.00;99.90
6377;DHT22;3221;48.858;10.128;2024-03-08T15:17:22;8.10;99.90
6377;DHT22;3221;48.858;10.128;2024-03-08T15:19:50;8.20;99.90
6377;DHT22;3221;48.858;10.128;2024-03-08T15:22:18;8.20;99.90
6377;DHT22;3221;48.858;10.128;2024-03-08T15:24:45;8.10;99.90
6377;DHT22;3221;48.858;10.128;2024-03-08T15:27:12;8.10;99.90
6377;DHT22;3221;48.858;10.128;2024-03-08T15:29:39;8.10;99.90
6377;DHT22;3221;48.858;10.128;2024-03-08T15:32:07;7.90;99.90
6377;DHT22;3221;48.858;10.128;2024-03-08T15:34:36;8.00;99.90
6377;DHT22;3221;48.858;10.128;2024-03-08T15:37:05;7.90;99.90
6377;DHT22;3221;48.858;10.128;2024-03-08T15:39:33;7.90;99.90
6377;DHT22;3221;48.858;10.128;2024-03-08T15:42:01;7.90;99.90
6377;DHT22;3221;48.858;10.128;2024-03-08T15:44:28;7.80;99.90
6377;DHT22;3221;48.858;10.128;2024-03-08T15:46:55;7.80;99.90
6377;DHT22;3221;48.858;10.128;2024-03-08T15:49:23;7.80;99.90
6377;DHT22;3221;48.858;10.128;2024-03-08T15:51:53;7.80;99.90
6377;DHT22;3221;48.858;10.128;2024-03-08T15:54:21;7.70;99.90
6377;DHT22;3221;48.858;10.128;2024-03-08T15:56:48;7.90;99.90
6377;DHT22;3221;48.858;10.128;2024-03-08T15:59:16;7.60;99.90
6377;DHT22;3221;48.858;10.128;2024-03-08T16:01:43;7.60;99.90
6377;DHT22;3221;48.858;10.128;2024-03-08T16:04:16;7.60;99.90
6377;DHT22;3221;48.858;10.128;2024-03-08T16:06:43;7.60;99.90
6377;DHT22;3221;48.858;10.128;2024-03-08T16:09:11;7.60;99.90
6377;DHT22;3221;48.858;10.128;2024-03-08T16:11:42;7.40;99.90
6377;DHT22;3221;48.858;10.128;2024-03-08T16:14:11;7.40;99.90